sensor_id;sensor_type;location;lat;lon;timestamp;P1;durP1;ratioP1;P2;durP2;ratioP2
19673;SDS011;9986;50.610;7.230;2023-03-14T00:00:49;4.03;;;1.53;;
19673;SDS011;9986;50.610;7.230;2023-03-14T00:03:29;3.70;;;1.37;;
19673;SDS011;9986;50.610;7.230;2023-03-14T00:06:15;3.67;;;1.23;;
19673;SDS011;9986;50.610;7.230;2023-03-14T00:08:54;6.07;;;1.40;;
19673;SDS011;9986;50.610;7.230;2023-03-14T00:11:35;1.63;;;1.53;;
19673;SDS011;9986;50.610;7.230;2023-03-14T00:14:16;6.43;;;1.40;;
19673;SDS011;9986;50.610;7.230;2023-03-14T00:19:40;7.17;;;1.50;;
19673;SDS011;9986;50.610;7.230;2023-03-14T00:22:21;2.17;;;1.10;;
19673;SDS011;9986;50.610;7.230;2023-03-14T00:25:02;4.37;;;1.23;;
19673;SDS011;9986;50.610;7.230;2023-03-14T00:27:42;5.40;;;1.70;;
19673;SDS011;9986;50.610;7.230;2023-03-14T00:30:23;4.87;;;1.10;;
19673;SDS011;9986;50.610;7.230;2023-03-14T00:33:07;2.03;;;1.30;;
19673;SDS011;9986;50.610;7.230;2023-03-14T00:35:52;5.90;;;1.57;;
19673;SDS011;9986;50.610;7.230;2023-03-14T00:38:39;3.77;;;1.63;;
19673;SDS011;9986;50.610;7.230;2023-03-14T00:41:20;4.87;;;1.33;;
19673;SDS011;9986;50.610;7.230;2023-03-14T00:46:31;5.33;;;1.40;;
19673;SDS011;9986;50.610;7.230;2023-03-14T00:49:11;3.53;;;1.53;;
19673;SDS011;9986;50.610;7.230;2023-03-14T00:51:52;3.73;;;1.33;;
19673;SDS011;9986;50.610;7.230;2023-03-14T00:54:32;5.67;;;1.20;;
19673;SDS011;9986;50.610;7.230;2023-03-14T00:57:12;4.27;;;1.10;;
19673;SDS011;9986;50.610;7.230;2023-03-14T01:02:29;2.90;;;1.10;;
19673;SDS011;9986;50.610;7.230;2023-03-14T01:05:17;2.70;;;1.33;;
19673;SDS011;9986;50.610;7.230;2023-03-14T01:07:58;2.73;;;1.00;;
19673;SDS011;9986;50.610;7.230;2023-03-14T01:10:38;4.27;;;1.50;;
19673;SDS011;9986;50.610;7.230;2023-03-14T01:13:19;2.77;;;1.53;;
19673;SDS011;9986;50.610;7.230;2023-03-14T01:16:06;1.80;;;0.90;;
19673;SDS011;9986;50.610;7.230;2023-03-14T01:18:46;3.37;;;1.37;;
19673;SDS011;9986;50.610;7.230;2023-03-14T01:21:29;4.30;;;1.27;;
19673;SDS011;9986;50.610;7.230;2023-03-14T01:24:11;6.63;;;1.47;;
19673;SDS011;9986;50.610;7.230;2023-03-14T01:26:51;2.37;;;1.10;;
19673;SDS011;9986;50.610;7.230;2023-03-14T01:29:32;2.67;;;1.33;;
19673;SDS011;9986;50.610;7.230;2023-03-14T01:34:42;3.17;;;1.40;;
19673;SDS011;9986;50.610;7.230;2023-03-14T01:39:52;4.17;;;1.63;;
19673;SDS011;9986;50.610;7.230;2023-03-14T01:42:33;4.70;;;1.37;;
19673;SDS011;9986;50.610;7.230;2023-03-14T01:51:04;5.37;;;1.50;;
19673;SDS011;9986;50.610;7.230;2023-03-14T01:56:16;2.63;;;1.13;;
19673;SDS011;9986;50.610;7.230;2023-03-14T01:58:58;3.70;;;1.30;;
19673;SDS011;9986;50.610;7.230;2023-03-14T02:01:50;2.00;;;1.33;;
19673;SDS011;9986;50.610;7.230;2023-03-14T02:07:04;2.83;;;1.30;;
19673;SDS011;9986;50.610;7.230;2023-03-14T02:09:46;3.50;;;1.30;;
19673;SDS011;9986;50.610;7.230;2023-03-14T02:12:28;3.67;;;1.20;;
19673;SDS011;9986;50.610;7.230;2023-03-14T02:15:11;4.30;;;1.50;;
19673;SDS011;9986;50.610;7.230;2023-03-14T02:17:42;3.47;;;1.33;;
19673;SDS011;9986;50.610;7.230;2023-03-14T02:20:30;6.20;;;1.50;;
19673;SDS011;9986;50.610;7.230;2023-03-14T02:23:13;3.33;;;1.37;;
19673;SDS011;9986;50.610;7.230;2023-03-14T02:25:56;3.20;;;1.43;;
19673;SDS011;9986;50.610;7.230;2023-03-14T02:28:37;5.17;;;1.63;;
19673;SDS011;9986;50.610;7.230;2023-03-14T02:33:47;3.13;;;1.33;;
19673;SDS011;9986;50.610;7.230;2023-03-14T02:36:27;7.70;;;1.77;;
19673;SDS011;9986;50.610;7.230;2023-03-14T02:39:10;5.33;;;1.60;;
19673;SDS011;9986;50.610;7.230;2023-03-14T02:41:53;4.27;;;1.30;;
19673;SDS011;9986;50.610;7.230;2023-03-14T02:44:34;3.93;;;1.30;;
19673;SDS011;9986;50.610;7.230;2023-03-14T02:47:14;4.40;;;1.40;;
19673;SDS011;9986;50.610;7.230;2023-03-14T02:49:56;4.57;;;1.83;;
19673;SDS011;9986;50.610;7.230;2023-03-14T02:52:37;6.40;;;1.87;;
19673;SDS011;9986;50.610;7.230;2023-03-14T02:55:20;5.10;;;1.60;;
19673;SDS011;9986;50.610;7.230;2023-03-14T03:00:39;4.53;;;1.63;;
19673;SDS011;9986;50.610;7.230;2023-03-14T03:03:19;9.00;;;1.53;;
19673;SDS011;9986;50.610;7.230;2023-03-14T03:06:00;6.57;;;1.47;;
19673;SDS011;9986;50.610;7.230;2023-03-14T03:08:41;5.50;;;1.67;;
19673;SDS011;9986;50.610;7.230;2023-03-14T03:11:21;3.47;;;1.47;;
19673;SDS011;9986;50.610;7.230;2023-03-14T03:14:01;7.07;;;1.80;;
19673;SDS011;9986;50.610;7.230;2023-03-14T03:19:23;3.90;;;1.47;;
19673;SDS011;9986;50.610;7.230;2023-03-14T03:22:06;5.37;;;1.80;;
19673;SDS011;9986;50.610;7.230;2023-03-14T03:24:56;5.50;;;1.40;;
19673;SDS011;9986;50.610;7.230;2023-03-14T03:27:36;5.33;;;1.50;;
19673;SDS011;9986;50.610;7.230;2023-03-14T03:30:20;5.93;;;1.70;;
19673;SDS011;9986;50.610;7.230;2023-03-14T03:33:00;3.57;;;1.80;;
19673;SDS011;9986;50.610;7.230;2023-03-14T03:38:09;4.77;;;1.50;;
19673;SDS011;9986;50.610;7.230;2023-03-14T03:40:50;3.87;;;1.40;;
19673;SDS011;9986;50.610;7.230;2023-03-14T03:46:09;5.93;;;1.93;;
19673;SDS011;9986;50.610;7.230;2023-03-14T03:48:46;4.87;;;1.50;;
19673;SDS011;9986;50.610;7.230;2023-03-14T03:53:56;8.20;;;1.73;;
19673;SDS011;9986;50.610;7.230;2023-03-14T03:59:06;5.80;;;1.47;;
19673;SDS011;9986;50.610;7.230;2023-03-14T04:01:46;2.93;;;1.10;;
19673;SDS011;9986;50.610;7.230;2023-03-14T04:04:27;3.47;;;1.50;;
19673;SDS011;9986;50.610;7.230;2023-03-14T04:07:08;4.17;;;0.97;;
19673;SDS011;9986;50.610;7.230;2023-03-14T04:09:48;2.13;;;1.60;;
19673;SDS011;9986;50.610;7.230;2023-03-14T04:12:28;4.53;;;1.30;;
19673;SDS011;9986;50.610;7.230;2023-03-14T04:15:09;3.23;;;1.40;;
19673;SDS011;9986;50.610;7.230;2023-03-14T04:17:54;5.17;;;1.50;;
19673;SDS011;9986;50.610;7.230;2023-03-14T04:20:35;6.70;;;1.47;;
19673;SDS011;9986;50.610;7.230;2023-03-14T04:23:16;6.63;;;1.63;;
19673;SDS011;9986;50.610;7.230;2023-03-14T04:25:57;2.23;;;0.90;;
19673;SDS011;9986;50.610;7.230;2023-03-14T04:31:19;2.40;;;1.13;;
19673;SDS011;9986;50.610;7.230;2023-03-14T04:39:23;3.23;;;1.10;;
19673;SDS011;9986;50.610;7.230;2023-03-14T04:44:42;1.87;;;0.80;;
19673;SDS011;9986;50.610;7.230;2023-03-14T04:47:25;1.03;;;0.80;;
19673;SDS011;9986;50.610;7.230;2023-03-14T04:50:13;1.10;;;0.63;;
19673;SDS011;9986;50.610;7.230;2023-03-14T04:52:53;0.80;;;0.70;;
19673;SDS011;9986;50.610;7.230;2023-03-14T04:55:33;1.03;;;0.80;;
19673;SDS011;9986;50.610;7.230;2023-03-14T04:58:14;0.93;;;0.70;;
19673;SDS011;9986;50.610;7.230;2023-03-14T05:00:54;1.30;;;0.80;;
19673;SDS011;9986;50.610;7.230;2023-03-14T05:06:06;2.50;;;0.70;;
19673;SDS011;9986;50.610;7.230;2023-03-14T05:08:55;0.50;;;0.50;;
19673;SDS011;9986;50.610;7.230;2023-03-14T05:11:35;0.60;;;0.60;;
19673;SDS011;9986;50.610;7.230;2023-03-14T05:14:16;0.47;;;0.47;;
19673;SDS011;9986;50.610;7.230;2023-03-14T05:16:56;0.83;;;0.83;;
19673;SDS011;9986;50.610;7.230;2023-03-14T05:22:11;1.77;;;0.80;;
19673;SDS011;9986;50.610;7.230;2023-03-14T05:27:22;0.53;;;0.53;;
19673;SDS011;9986;50.610;7.230;2023-03-14T05:30:09;2.47;;;0.80;;
19673;SDS011;9986;50.610;7.230;2023-03-14T05:32:56;0.50;;;0.50;;
19673;SDS011;9986;50.610;7.230;2023-03-14T05:35:37;0.40;;;0.40;;
19673;SDS011;9986;50.610;7.230;2023-03-14T05:38:17;0.60;;;0.60;;
19673;SDS011;9986;50.610;7.230;2023-03-14T05:40:57;0.40;;;0.40;;
19673;SDS011;9986;50.610;7.230;2023-03-14T05:43:43;0.93;;;0.50;;
19673;SDS011;9986;50.610;7.230;2023-03-14T05:49:02;0.63;;;0.50;;
19673;SDS011;9986;50.610;7.230;2023-03-14T05:51:42;1.07;;;0.50;;
19673;SDS011;9986;50.610;7.230;2023-03-14T05:54:22;0.47;;;0.47;;
19673;SDS011;9986;50.610;7.230;2023-03-14T05:57:02;0.60;;;0.60;;
19673;SDS011;9986;50.610;7.230;2023-03-14T05:59:42;0.53;;;0.53;;
19673;SDS011;9986;50.610;7.230;2023-03-14T06:02:27;0.30;;;0.30;;
19673;SDS011;9986;50.610;7.230;2023-03-14T06:07:38;0.60;;;0.60;;
19673;SDS011;9986;50.610;7.230;2023-03-14T06:10:19;0.73;;;0.47;;
19673;SDS011;9986;50.610;7.230;2023-03-14T06:13:00;0.40;;;0.40;;
19673;SDS011;9986;50.610;7.230;2023-03-14T06:18:20;1.07;;;0.60;;
19673;SDS011;9986;50.610;7.230;2023-03-14T06:23:32;0.50;;;0.50;;
19673;SDS011;9986;50.610;7.230;2023-03-14T06:28:43;0.83;;;0.60;;
19673;SDS011;9986;50.610;7.230;2023-03-14T06:31:30;0.43;;;0.43;;
19673;SDS011;9986;50.610;7.230;2023-03-14T06:34:13;0.50;;;0.50;;
19673;SDS011;9986;50.610;7.230;2023-03-14T06:39:32;0.50;;;0.50;;
19673;SDS011;9986;50.610;7.230;2023-03-14T06:44:42;0.60;;;0.60;;
19673;SDS011;9986;50.610;7.230;2023-03-14T06:47:22;0.50;;;0.50;;
19673;SDS011;9986;50.610;7.230;2023-03-14T06:50:04;0.50;;;0.50;;
19673;SDS011;9986;50.610;7.230;2023-03-14T06:55:15;0.87;;;0.80;;
19673;SDS011;9986;50.610;7.230;2023-03-14T07:00:25;1.80;;;0.50;;
19673;SDS011;9986;50.610;7.230;2023-03-14T07:03:11;0.60;;;0.60;;
19673;SDS011;9986;50.610;7.230;2023-03-14T07:08:34;0.50;;;0.50;;
19673;SDS011;9986;50.610;7.230;2023-03-14T07:11:15;0.50;;;0.50;;
19673;SDS011;9986;50.610;7.230;2023-03-14T07:14:01;1.00;;;0.50;;
19673;SDS011;9986;50.610;7.230;2023-03-14T07:16:41;0.60;;;0.60;;
19673;SDS011;9986;50.610;7.230;2023-03-14T07:19:22;0.53;;;0.50;;
19673;SDS011;9986;50.610;7.230;2023-03-14T07:22:02;1.50;;;0.50;;
19673;SDS011;9986;50.610;7.230;2023-03-14T07:27:15;1.10;;;0.50;;
19673;SDS011;9986;50.610;7.230;2023-03-14T07:32:34;0.50;;;0.50;;
19673;SDS011;9986;50.610;7.230;2023-03-14T07:37:54;0.57;;;0.57;;
19673;SDS011;9986;50.610;7.230;2023-03-14T07:40:34;0.40;;;0.40;;
19673;SDS011;9986;50.610;7.230;2023-03-14T07:43:15;0.70;;;0.70;;
19673;SDS011;9986;50.610;7.230;2023-03-14T07:45:55;0.50;;;0.50;;
19673;SDS011;9986;50.610;7.230;2023-03-14T07:48:38;0.33;;;0.33;;
19673;SDS011;9986;50.610;7.230;2023-03-14T07:51:27;0.40;;;0.40;;
19673;SDS011;9986;50.610;7.230;2023-03-14T07:56:45;0.50;;;0.50;;
19673;SDS011;9986;50.610;7.230;2023-03-14T07:59:26;0.50;;;0.50;;
19673;SDS011;9986;50.610;7.230;2023-03-14T08:02:08;0.40;;;0.40;;
19673;SDS011;9986;50.610;7.230;2023-03-14T08:04:50;0.50;;;0.50;;
19673;SDS011;9986;50.610;7.230;2023-03-14T08:07:30;0.40;;;0.40;;
19673;SDS011;9986;50.610;7.230;2023-03-14T08:10:11;0.43;;;0.43;;
19673;SDS011;9986;50.610;7.230;2023-03-14T08:12:52;0.30;;;0.30;;
19673;SDS011;9986;50.610;7.230;2023-03-14T08:15:33;0.40;;;0.40;;
19673;SDS011;9986;50.610;7.230;2023-03-14T08:18:22;0.53;;;0.53;;
19673;SDS011;9986;50.610;7.230;2023-03-14T08:21:09;0.50;;;0.50;;
19673;SDS011;9986;50.610;7.230;2023-03-14T08:26:19;0.50;;;0.50;;
19673;SDS011;9986;50.610;7.230;2023-03-14T08:29:00;0.40;;;0.40;;
19673;SDS011;9986;50.610;7.230;2023-03-14T08:31:40;0.50;;;0.50;;
19673;SDS011;9986;50.610;7.230;2023-03-14T08:34:21;0.50;;;0.50;;
19673;SDS011;9986;50.610;7.230;2023-03-14T08:37:01;0.40;;;0.40;;
19673;SDS011;9986;50.610;7.230;2023-03-14T08:39:41;0.70;;;0.70;;
19673;SDS011;9986;50.610;7.230;2023-03-14T08:42:21;0.80;;;0.43;;
19673;SDS011;9986;50.610;7.230;2023-03-14T08:45:01;0.40;;;0.40;;
19673;SDS011;9986;50.610;7.230;2023-03-14T08:50:12;0.50;;;0.50;;
19673;SDS011;9986;50.610;7.230;2023-03-14T08:52:52;0.50;;;0.50;;
19673;SDS011;9986;50.610;7.230;2023-03-14T08:55:32;0.53;;;0.53;;
19673;SDS011;9986;50.610;7.230;2023-03-14T08:58:11;0.50;;;0.50;;
19673;SDS011;9986;50.610;7.230;2023-03-14T09:00:52;0.60;;;0.60;;
19673;SDS011;9986;50.610;7.230;2023-03-14T09:03:32;0.50;;;0.50;;
19673;SDS011;9986;50.610;7.230;2023-03-14T09:06:15;0.40;;;0.40;;
19673;SDS011;9986;50.610;7.230;2023-03-14T09:14:05;0.57;;;0.57;;
19673;SDS011;9986;50.610;7.230;2023-03-14T09:16:45;0.60;;;0.60;;
19673;SDS011;9986;50.610;7.230;2023-03-14T09:19:25;0.40;;;0.40;;
19673;SDS011;9986;50.610;7.230;2023-03-14T09:22:04;0.40;;;0.40;;
19673;SDS011;9986;50.610;7.230;2023-03-14T09:24:44;0.40;;;0.40;;
19673;SDS011;9986;50.610;7.230;2023-03-14T09:29:56;1.77;;;0.40;;
19673;SDS011;9986;50.610;7.230;2023-03-14T09:32:37;0.40;;;0.40;;
19673;SDS011;9986;50.610;7.230;2023-03-14T09:37:47;0.40;;;0.40;;
19673;SDS011;9986;50.610;7.230;2023-03-14T09:40:29;1.17;;;0.40;;
19673;SDS011;9986;50.610;7.230;2023-03-14T09:43:10;0.40;;;0.40;;
19673;SDS011;9986;50.610;7.230;2023-03-14T09:48:22;0.40;;;0.40;;
19673;SDS011;9986;50.610;7.230;2023-03-14T09:51:04;0.47;;;0.47;;
19673;SDS011;9986;50.610;7.230;2023-03-14T09:53:46;0.50;;;0.50;;
19673;SDS011;9986;50.610;7.230;2023-03-14T09:59:10;0.93;;;0.47;;
19673;SDS011;9986;50.610;7.230;2023-03-14T10:01:50;0.30;;;0.30;;
19673;SDS011;9986;50.610;7.230;2023-03-14T10:07:10;1.70;;;0.60;;
19673;SDS011;9986;50.610;7.230;2023-03-14T10:09:56;0.43;;;0.43;;
19673;SDS011;9986;50.610;7.230;2023-03-14T10:12:36;0.67;;;0.63;;
19673;SDS011;9986;50.610;7.230;2023-03-14T10:15:22;0.60;;;0.60;;
19673;SDS011;9986;50.610;7.230;2023-03-14T10:23:26;0.70;;;0.70;;
19673;SDS011;9986;50.610;7.230;2023-03-14T10:26:07;0.63;;;0.63;;
19673;SDS011;9986;50.610;7.230;2023-03-14T10:28:50;1.23;;;0.90;;
19673;SDS011;9986;50.610;7.230;2023-03-14T10:31:33;0.70;;;0.70;;
19673;SDS011;9986;50.610;7.230;2023-03-14T10:34:23;0.60;;;0.60;;
19673;SDS011;9986;50.610;7.230;2023-03-14T10:39:49;1.23;;;0.80;;
19673;SDS011;9986;50.610;7.230;2023-03-14T10:45:02;2.27;;;0.90;;
19673;SDS011;9986;50.610;7.230;2023-03-14T10:47:48;0.80;;;0.80;;
19673;SDS011;9986;50.610;7.230;2023-03-14T10:55:47;1.90;;;1.00;;
19673;SDS011;9986;50.610;7.230;2023-03-14T10:58:28;0.80;;;0.80;;
19673;SDS011;9986;50.610;7.230;2023-03-14T11:03:47;0.80;;;0.80;;
19673;SDS011;9986;50.610;7.230;2023-03-14T11:09:00;0.90;;;0.90;;
19673;SDS011;9986;50.610;7.230;2023-03-14T11:11:42;1.33;;;1.00;;
19673;SDS011;9986;50.610;7.230;2023-03-14T11:14:25;1.00;;;0.90;;
19673;SDS011;9986;50.610;7.230;2023-03-14T11:17:07;1.00;;;0.83;;
19673;SDS011;9986;50.610;7.230;2023-03-14T11:22:22;1.27;;;1.27;;
19673;SDS011;9986;50.610;7.230;2023-03-14T11:25:06;4.37;;;1.53;;
19673;SDS011;9986;50.610;7.230;2023-03-14T11:30:23;1.53;;;1.43;;
19673;SDS011;9986;50.610;7.230;2023-03-14T11:33:07;4.40;;;1.70;;
19673;SDS011;9986;50.610;7.230;2023-03-14T11:35:49;1.60;;;1.50;;
19673;SDS011;9986;50.610;7.230;2023-03-14T11:38:34;1.90;;;1.80;;
19673;SDS011;9986;50.610;7.230;2023-03-14T11:41:17;1.80;;;1.70;;
19673;SDS011;9986;50.610;7.230;2023-03-14T11:43:59;1.80;;;1.70;;
19673;SDS011;9986;50.610;7.230;2023-03-14T11:46:41;2.00;;;1.90;;
19673;SDS011;9986;50.610;7.230;2023-03-14T11:49:24;4.70;;;2.00;;
19673;SDS011;9986;50.610;7.230;2023-03-14T11:52:09;1.97;;;1.87;;
19673;SDS011;9986;50.610;7.230;2023-03-14T11:54:58;1.57;;;1.47;;
19673;SDS011;9986;50.610;7.230;2023-03-14T11:57:40;2.17;;;1.90;;
19673;SDS011;9986;50.610;7.230;2023-03-14T12:00:25;1.30;;;1.30;;
19673;SDS011;9986;50.610;7.230;2023-03-14T12:05:39;1.40;;;1.37;;
19673;SDS011;9986;50.610;7.230;2023-03-14T12:08:33;3.57;;;1.33;;
19673;SDS011;9986;50.610;7.230;2023-03-14T12:13:45;2.77;;;1.57;;
19673;SDS011;9986;50.610;7.230;2023-03-14T12:16:34;1.90;;;1.30;;
19673;SDS011;9986;50.610;7.230;2023-03-14T12:19:26;2.17;;;1.10;;
19673;SDS011;9986;50.610;7.230;2023-03-14T12:22:17;1.40;;;1.30;;
19673;SDS011;9986;50.610;7.230;2023-03-14T12:25:00;1.00;;;1.00;;
19673;SDS011;9986;50.610;7.230;2023-03-14T12:30:26;0.97;;;0.97;;
19673;SDS011;9986;50.610;7.230;2023-03-14T12:33:18;1.10;;;1.10;;
19673;SDS011;9986;50.610;7.230;2023-03-14T12:38:45;1.67;;;0.80;;
19673;SDS011;9986;50.610;7.230;2023-03-14T12:41:36;0.60;;;0.60;;
19673;SDS011;9986;50.610;7.230;2023-03-14T12:50:40;0.70;;;0.70;;
19673;SDS011;9986;50.610;7.230;2023-03-14T12:56:38;1.00;;;1.00;;
19673;SDS011;9986;50.610;7.230;2023-03-14T12:59:29;1.20;;;1.10;;
19673;SDS011;9986;50.610;7.230;2023-03-14T13:04:46;1.10;;;1.10;;
19673;SDS011;9986;50.610;7.230;2023-03-14T13:10:18;1.20;;;1.20;;
19673;SDS011;9986;50.610;7.230;2023-03-14T13:13:01;1.00;;;1.00;;
19673;SDS011;9986;50.610;7.230;2023-03-14T13:18:12;1.13;;;1.13;;
19673;SDS011;9986;50.610;7.230;2023-03-14T13:20:56;1.33;;;1.30;;
19673;SDS011;9986;50.610;7.230;2023-03-14T13:26:13;1.90;;;1.50;;
19673;SDS011;9986;50.610;7.230;2023-03-14T13:28:54;2.70;;;1.70;;
19673;SDS011;9986;50.610;7.230;2023-03-14T13:31:34;1.70;;;1.60;;
19673;SDS011;9986;50.610;7.230;2023-03-14T13:34:14;1.40;;;1.30;;
19673;SDS011;9986;50.610;7.230;2023-03-14T13:39:33;2.57;;;1.50;;
19673;SDS011;9986;50.610;7.230;2023-03-14T13:42:16;1.30;;;1.20;;
19673;SDS011;9986;50.610;7.230;2023-03-14T13:44:56;3.33;;;1.97;;
19673;SDS011;9986;50.610;7.230;2023-03-14T13:47:37;1.33;;;1.23;;
19673;SDS011;9986;50.610;7.230;2023-03-14T13:55:33;1.57;;;1.33;;
19673;SDS011;9986;50.610;7.230;2023-03-14T13:58:19;1.40;;;1.30;;
19673;SDS011;9986;50.610;7.230;2023-03-14T14:01:00;1.40;;;1.40;;
19673;SDS011;9986;50.610;7.230;2023-03-14T14:03:43;1.30;;;1.30;;
19673;SDS011;9986;50.610;7.230;2023-03-14T14:06:28;5.13;;;1.87;;
19673;SDS011;9986;50.610;7.230;2023-03-14T14:09:10;1.50;;;1.40;;
19673;SDS011;9986;50.610;7.230;2023-03-14T14:14:30;1.87;;;1.77;;
19673;SDS011;9986;50.610;7.230;2023-03-14T14:17:12;1.77;;;1.40;;
19673;SDS011;9986;50.610;7.230;2023-03-14T14:19:54;1.80;;;1.60;;
19673;SDS011;9986;50.610;7.230;2023-03-14T14:22:34;1.50;;;1.40;;
19673;SDS011;9986;50.610;7.230;2023-03-14T14:27:46;4.10;;;1.40;;
19673;SDS011;9986;50.610;7.230;2023-03-14T14:33:12;1.50;;;1.47;;
19673;SDS011;9986;50.610;7.230;2023-03-14T14:35:57;3.23;;;1.50;;
19673;SDS011;9986;50.610;7.230;2023-03-14T14:41:10;3.13;;;2.83;;
19673;SDS011;9986;50.610;7.230;2023-03-14T14:43:54;4.47;;;2.00;;
19673;SDS011;9986;50.610;7.230;2023-03-14T14:49:05;3.67;;;2.00;;
19673;SDS011;9986;50.610;7.230;2023-03-14T14:51:48;4.43;;;1.70;;
19673;SDS011;9986;50.610;7.230;2023-03-14T14:54:36;2.70;;;1.70;;
19673;SDS011;9986;50.610;7.230;2023-03-14T15:02:33;8.77;;;1.80;;
19673;SDS011;9986;50.610;7.230;2023-03-14T15:07:48;4.17;;;1.67;;
19673;SDS011;9986;50.610;7.230;2023-03-14T15:10:31;2.63;;;1.57;;
19673;SDS011;9986;50.610;7.230;2023-03-14T15:13:11;5.77;;;2.50;;
19673;SDS011;9986;50.610;7.230;2023-03-14T15:15:53;3.40;;;2.10;;
19673;SDS011;9986;50.610;7.230;2023-03-14T15:18:34;5.57;;;2.30;;
19673;SDS011;9986;50.610;7.230;2023-03-14T15:21:14;5.53;;;2.33;;
19673;SDS011;9986;50.610;7.230;2023-03-14T15:23:54;4.53;;;1.83;;
19673;SDS011;9986;50.610;7.230;2023-03-14T15:29:13;6.50;;;1.77;;
19673;SDS011;9986;50.610;7.230;2023-03-14T15:31:53;7.53;;;2.47;;
19673;SDS011;9986;50.610;7.230;2023-03-14T15:37:13;6.30;;;2.70;;
19673;SDS011;9986;50.610;7.230;2023-03-14T15:39:54;8.57;;;2.53;;
19673;SDS011;9986;50.610;7.230;2023-03-14T15:42:33;7.07;;;2.60;;
19673;SDS011;9986;50.610;7.230;2023-03-14T15:47:50;11.47;;;6.07;;
19673;SDS011;9986;50.610;7.230;2023-03-14T15:50:30;7.60;;;2.33;;
19673;SDS011;9986;50.610;7.230;2023-03-14T15:55:55;5.20;;;1.93;;
19673;SDS011;9986;50.610;7.230;2023-03-14T15:58:35;4.80;;;1.93;;
19673;SDS011;9986;50.610;7.230;2023-03-14T16:01:20;4.80;;;2.00;;
19673;SDS011;9986;50.610;7.230;2023-03-14T16:06:30;2.67;;;2.13;;
19673;SDS011;9986;50.610;7.230;2023-03-14T16:09:16;3.30;;;1.60;;
19673;SDS011;9986;50.610;7.230;2023-03-14T16:17:07;3.97;;;1.60;;
19673;SDS011;9986;50.610;7.230;2023-03-14T16:22:17;1.50;;;1.40;;
19673;SDS011;9986;50.610;7.230;2023-03-14T16:24:57;2.10;;;1.60;;
19673;SDS011;9986;50.610;7.230;2023-03-14T16:27:38;2.80;;;1.57;;
19673;SDS011;9986;50.610;7.230;2023-03-14T16:32:47;1.73;;;1.63;;
19673;SDS011;9986;50.610;7.230;2023-03-14T16:35:27;2.83;;;1.70;;
19673;SDS011;9986;50.610;7.230;2023-03-14T16:38:08;1.70;;;1.60;;
19673;SDS011;9986;50.610;7.230;2023-03-14T16:43:17;1.87;;;1.50;;
19673;SDS011;9986;50.610;7.230;2023-03-14T16:45:58;2.90;;;2.17;;
19673;SDS011;9986;50.610;7.230;2023-03-14T16:51:18;3.80;;;2.00;;
19673;SDS011;9986;50.610;7.230;2023-03-14T16:53:58;3.30;;;1.90;;
19673;SDS011;9986;50.610;7.230;2023-03-14T16:56:38;3.43;;;2.07;;
19673;SDS011;9986;50.610;7.230;2023-03-14T16:59:18;3.73;;;2.07;;
19673;SDS011;9986;50.610;7.230;2023-03-14T17:01:58;2.17;;;1.93;;
19673;SDS011;9986;50.610;7.230;2023-03-14T17:04:39;1.90;;;1.80;;
19673;SDS011;9986;50.610;7.230;2023-03-14T17:07:26;4.53;;;1.73;;
19673;SDS011;9986;50.610;7.230;2023-03-14T17:10:06;4.90;;;1.80;;
19673;SDS011;9986;50.610;7.230;2023-03-14T17:15:18;2.90;;;1.77;;
19673;SDS011;9986;50.610;7.230;2023-03-14T17:17:58;1.90;;;1.80;;
19673;SDS011;9986;50.610;7.230;2023-03-14T17:20:38;2.27;;;1.90;;
19673;SDS011;9986;50.610;7.230;2023-03-14T17:23:18;3.90;;;1.90;;
19673;SDS011;9986;50.610;7.230;2023-03-14T17:25:59;5.17;;;1.83;;
19673;SDS011;9986;50.610;7.230;2023-03-14T17:28:38;3.60;;;1.87;;
19673;SDS011;9986;50.610;7.230;2023-03-14T17:31:19;5.43;;;1.90;;
19673;SDS011;9986;50.610;7.230;2023-03-14T17:34:06;6.13;;;2.10;;
19673;SDS011;9986;50.610;7.230;2023-03-14T17:36:46;3.43;;;2.10;;
19673;SDS011;9986;50.610;7.230;2023-03-14T17:39:27;2.93;;;2.13;;
19673;SDS011;9986;50.610;7.230;2023-03-14T17:42:07;3.93;;;2.30;;
19673;SDS011;9986;50.610;7.230;2023-03-14T17:44:48;8.43;;;3.23;;
19673;SDS011;9986;50.610;7.230;2023-03-14T17:47:28;4.83;;;2.10;;
19673;SDS011;9986;50.610;7.230;2023-03-14T17:50:09;6.70;;;2.60;;
19673;SDS011;9986;50.610;7.230;2023-03-14T17:52:50;6.23;;;2.50;;
19673;SDS011;9986;50.610;7.230;2023-03-14T17:55:31;5.87;;;3.30;;
19673;SDS011;9986;50.610;7.230;2023-03-14T17:58:13;8.30;;;3.30;;
19673;SDS011;9986;50.610;7.230;2023-03-14T18:00:58;8.80;;;3.90;;
19673;SDS011;9986;50.610;7.230;2023-03-14T18:03:52;8.30;;;3.47;;
19673;SDS011;9986;50.610;7.230;2023-03-14T18:06:25;6.33;;;2.80;;
19673;SDS011;9986;50.610;7.230;2023-03-14T18:09:05;7.90;;;2.70;;
19673;SDS011;9986;50.610;7.230;2023-03-14T18:11:46;7.70;;;3.00;;
19673;SDS011;9986;50.610;7.230;2023-03-14T18:17:05;7.90;;;2.57;;
19673;SDS011;9986;50.610;7.230;2023-03-14T18:22:24;8.03;;;3.10;;
19673;SDS011;9986;50.610;7.230;2023-03-14T18:25:11;3.80;;;2.50;;
19673;SDS011;9986;50.610;7.230;2023-03-14T18:27:51;9.60;;;2.57;;
19673;SDS011;9986;50.610;7.230;2023-03-14T18:30:32;6.57;;;3.30;;
19673;SDS011;9986;50.610;7.230;2023-03-14T18:35:57;8.17;;;3.27;;
19673;SDS011;9986;50.610;7.230;2023-03-14T18:38:38;6.07;;;3.17;;
19673;SDS011;9986;50.610;7.230;2023-03-14T18:41:18;7.63;;;2.70;;
19673;SDS011;9986;50.610;7.230;2023-03-14T18:43:58;5.63;;;3.17;;
19673;SDS011;9986;50.610;7.230;2023-03-14T18:46:38;7.17;;;3.10;;
19673;SDS011;9986;50.610;7.230;2023-03-14T18:49:19;6.63;;;2.60;;
19673;SDS011;9986;50.610;7.230;2023-03-14T18:52:05;5.67;;;2.63;;
19673;SDS011;9986;50.610;7.230;2023-03-14T18:57:16;8.40;;;2.50;;
19673;SDS011;9986;50.610;7.230;2023-03-14T18:59:59;4.90;;;2.60;;
19673;SDS011;9986;50.610;7.230;2023-03-14T19:02:39;5.17;;;3.03;;
19673;SDS011;9986;50.610;7.230;2023-03-14T19:07:52;12.27;;;3.97;;
19673;SDS011;9986;50.610;7.230;2023-03-14T19:10:33;3.77;;;2.73;;
19673;SDS011;9986;50.610;7.230;2023-03-14T19:13:13;7.13;;;2.70;;
19673;SDS011;9986;50.610;7.230;2023-03-14T19:15:53;5.20;;;3.97;;
19673;SDS011;9986;50.610;7.230;2023-03-14T19:18:33;10.13;;;2.80;;
19673;SDS011;9986;50.610;7.230;2023-03-14T19:21:13;8.67;;;2.47;;
19673;SDS011;9986;50.610;7.230;2023-03-14T19:23:55;8.33;;;3.03;;
19673;SDS011;9986;50.610;7.230;2023-03-14T19:26:42;7.87;;;2.70;;
19673;SDS011;9986;50.610;7.230;2023-03-14T19:29:21;7.07;;;3.10;;
19673;SDS011;9986;50.610;7.230;2023-03-14T19:32:01;6.00;;;2.53;;
19673;SDS011;9986;50.610;7.230;2023-03-14T19:34:41;7.30;;;2.90;;
19673;SDS011;9986;50.610;7.230;2023-03-14T19:37:21;14.03;;;2.63;;
19673;SDS011;9986;50.610;7.230;2023-03-14T19:40:00;7.00;;;2.43;;
19673;SDS011;9986;50.610;7.230;2023-03-14T19:42:41;9.57;;;3.50;;
19673;SDS011;9986;50.610;7.230;2023-03-14T19:45:22;7.37;;;2.40;;
19673;SDS011;9986;50.610;7.230;2023-03-14T19:48:09;5.77;;;2.80;;
19673;SDS011;9986;50.610;7.230;2023-03-14T19:53:18;10.50;;;2.47;;
19673;SDS011;9986;50.610;7.230;2023-03-14T19:55:59;5.33;;;2.57;;
19673;SDS011;9986;50.610;7.230;2023-03-14T19:58:40;7.73;;;3.20;;
19673;SDS011;9986;50.610;7.230;2023-03-14T20:01:22;8.23;;;2.47;;
19673;SDS011;9986;50.610;7.230;2023-03-14T20:04:02;6.57;;;2.23;;
19673;SDS011;9986;50.610;7.230;2023-03-14T20:06:43;8.37;;;2.03;;
19673;SDS011;9986;50.610;7.230;2023-03-14T20:11:52;8.83;;;2.17;;
19673;SDS011;9986;50.610;7.230;2023-03-14T20:14:32;6.23;;;2.23;;
19673;SDS011;9986;50.610;7.230;2023-03-14T20:17:12;6.83;;;1.97;;
19673;SDS011;9986;50.610;7.230;2023-03-14T20:19:52;6.00;;;2.50;;
19673;SDS011;9986;50.610;7.230;2023-03-14T20:25:01;6.10;;;2.10;;
19673;SDS011;9986;50.610;7.230;2023-03-14T20:27:41;7.57;;;2.47;;
19673;SDS011;9986;50.610;7.230;2023-03-14T20:32:51;4.50;;;1.87;;
19673;SDS011;9986;50.610;7.230;2023-03-14T20:38:00;4.23;;;1.70;;
19673;SDS011;9986;50.610;7.230;2023-03-14T20:43:20;7.57;;;1.93;;
19673;SDS011;9986;50.610;7.230;2023-03-14T20:46:00;7.87;;;2.50;;
19673;SDS011;9986;50.610;7.230;2023-03-14T20:48:40;5.17;;;2.00;;
19673;SDS011;9986;50.610;7.230;2023-03-14T20:51:26;12.73;;;3.33;;